Time;durP1;ratioP1;P1;durP2;ratioP2;P2;SDS_P1;SDS_P2;PMS_P1;PMS_P2;Temp;Humidity;BMP_temperature;BMP_pressure;BME280_temperature;BME280_humidity;BME280_pressure;Samples;Min_cycle;Max_cycle;Signal;HPM_P1;HPM_P2
2022/06/18 00:00:26;;;;;;;;;;;;;;;25.79;31.09;99793.13;4498264;31;35076;-87
2022/06/18 00:02:53;;;;;;;;;;;;;;;25.60;31.58;99787.66;4499642;31;33465;-87
2022/06/18 00:05:21;;;;;;;;;;;;;;;25.47;31.71;99792.59;4499644;31;34403;-86
2022/06/18 00:07:49;;;;;;;;;;;;;;;25.56;31.46;99797.53;4493498;31;33909;-88
2022/06/18 00:10:18;;;;;;;;;;;;;;;25.81;31.38;99793.97;4507176;31;34293;-87
2022/06/18 00:15:33;;;;;;;;;;;;;;;25.73;31.54;99795.09;4514457;31;34164;-87
2022/06/18 00:18:00;;;;;;;;;;;;;;;25.62;31.59;99801.75;4515303;31;34299;-86
2022/06/18 00:20:28;;;;;;;;;;;;;;;25.63;32.00;99801.69;4515728;31;34619;-86
2022/06/18 00:22:58;;;;;;;;;;;;;;;25.73;32.04;99800.41;4515554;31;34136;-87
2022/06/18 00:25:33;;;;;;;;;;;;;;;25.56;32.04;99797.53;4511399;31;34302;-87
2022/06/18 00:28:00;;;;;;;;;;;;;;;25.68;31.87;99802.37;4513612;31;35147;-87
2022/06/18 00:30:28;;;;;;;;;;;;;;;25.54;31.67;99809.16;4515555;31;34284;-88
2022/06/18 00:32:56;;;;;;;;;;;;;;;25.69;31.57;99812.06;4515578;31;33499;-87
2022/06/18 00:35:23;;;;;;;;;;;;;;;25.52;31.65;99800.38;4514330;31;33987;-87
2022/06/18 00:37:52;;;;;;;;;;;;;;;25.49;31.83;99801.34;4491149;31;34184;-87
2022/06/18 00:40:22;;;;;;;;;;;;;;;25.45;31.75;99794.41;4497812;31;35196;-85
2022/06/18 00:42:49;;;;;;;;;;;;;;;25.42;31.80;99795.41;4492430;31;33948;-86
2022/06/18 00:45:17;;;;;;;;;;;;;;;25.21;32.08;99797.09;4495784;31;33787;-88
2022/06/18 00:47:55;;;;;;;;;;;;;;;25.20;32.31;99797.16;4492861;31;33946;-87
2022/06/18 00:50:30;;;;;;;;;;;;;;;25.19;32.46;99792.75;4498394;31;34263;-86
2022/06/18 00:53:02;;;;;;;;;;;;;;;25.00;33.03;99803.13;4493059;31;32927;-86
2022/06/18 00:55:36;;;;;;;;;;;;;;;25.10;32.82;99799.25;4497530;31;34348;-86
2022/06/18 00:58:06;;;;;;;;;;;;;;;24.88;33.47;99798.28;4485017;31;34245;-87
2022/06/18 01:00:35;;;;;;;;;;;;;;;25.19;32.97;99796.28;4484918;31;34179;-87
2022/06/18 01:03:02;;;;;;;;;;;;;;;25.14;32.63;99798.22;4485097;31;33377;-88
2022/06/18 01:05:34;;;;;;;;;;;;;;;24.62;34.12;99802.69;4498992;31;34166;-88
2022/06/18 01:08:10;;;;;;;;;;;;;;;25.28;33.24;99797.72;4486835;31;34185;-87
2022/06/18 01:10:41;;;;;;;;;;;;;;;25.15;33.12;99807.06;4484329;31;33912;-89
2022/06/18 01:13:10;;;;;;;;;;;;;;;25.05;33.10;99808.28;4485198;31;33155;-88
2022/06/18 01:15:38;;;;;;;;;;;;;;;25.05;33.48;99801.19;4485340;31;34103;-86
2022/06/18 01:18:06;;;;;;;;;;;;;;;25.10;33.48;99812.53;4485150;31;35226;-86
2022/06/18 01:20:37;;;;;;;;;;;;;;;25.23;33.14;99792.59;4484824;31;34008;-87
2022/06/18 01:23:17;;;;;;;;;;;;;;;25.11;33.17;99806.28;4484540;31;33341;-86
2022/06/18 01:25:44;;;;;;;;;;;;;;;24.98;33.35;99799.69;4499126;31;33762;-88
2022/06/18 01:28:16;;;;;;;;;;;;;;;24.88;33.37;99803.59;4484619;31;34825;-86
2022/06/18 01:30:44;;;;;;;;;;;;;;;25.13;32.91;99799.16;4499239;31;34277;-85
2022/06/18 01:33:12;;;;;;;;;;;;;;;24.97;33.39;99795.31;4499346;31;34335;-86
2022/06/18 01:35:42;;;;;;;;;;;;;;;24.86;33.65;99797.47;4499189;31;33978;-87
2022/06/18 01:38:10;;;;;;;;;;;;;;;24.93;33.57;99791.91;4489349;31;33843;-86
2022/06/18 01:40:41;;;;;;;;;;;;;;;24.66;34.02;99787.56;4511968;31;34003;-87
2022/06/18 01:43:10;;;;;;;;;;;;;;;24.80;33.68;99789.72;4515083;31;32914;-87
2022/06/18 01:45:38;;;;;;;;;;;;;;;24.56;34.26;99783.50;4506033;31;33853;-87
2022/06/18 01:48:11;;;;;;;;;;;;;;;24.82;33.83;99783.47;4498056;31;33811;-87
2022/06/18 01:50:47;;;;;;;;;;;;;;;24.62;34.06;99786.78;4498974;31;34894;-87
2022/06/18 01:53:17;;;;;;;;;;;;;;;24.78;34.04;99791.59;4489171;31;33107;-87
2022/06/18 01:55:46;;;;;;;;;;;;;;;24.80;34.21;99787.94;4484729;31;34198;-88
2022/06/18 01:58:22;;;;;;;;;;;;;;;24.81;34.12;99788.81;4484206;31;33872;-85
2022/06/18 02:00:52;;;;;;;;;;;;;;;24.79;34.28;99788.00;4502456;31;34953;-86
2022/06/18 02:03:20;;;;;;;;;;;;;;;24.86;34.31;99784.22;4497337;31;33938;-88
2022/06/18 02:05:47;;;;;;;;;;;;;;;24.75;34.54;99788.13;4498227;31;33474;-87
2022/06/18 02:08:16;;;;;;;;;;;;;;;24.67;34.67;99779.56;4487822;31;32681;-87
2022/06/18 02:10:45;;;;;;;;;;;;;;;24.79;34.66;99777.41;4484004;31;34511;-88
2022/06/18 02:13:12;;;;;;;;;;;;;;;24.58;35.05;99785.19;4484761;31;33271;-87
2022/06/18 02:15:40;;;;;;;;;;;;;;;24.90;34.15;99785.84;4498555;31;34266;-88
2022/06/18 02:18:08;;;;;;;;;;;;;;;24.90;34.21;99778.75;4484563;31;34765;-87
2022/06/18 02:20:38;;;;;;;;;;;;;;;24.85;34.14;99777.16;4496264;31;34210;-86
2022/06/18 02:23:05;;;;;;;;;;;;;;;24.79;34.08;99769.44;4478749;31;33678;-87
2022/06/18 02:25:33;;;;;;;;;;;;;;;24.89;33.64;99773.47;4497176;31;34969;-87
2022/06/18 02:28:02;;;;;;;;;;;;;;;25.06;33.12;99773.75;4499250;31;34017;-88
2022/06/18 02:30:33;;;;;;;;;;;;;;;24.83;33.67;99776.38;4484593;31;33939;-88
2022/06/18 02:33:04;;;;;;;;;;;;;;;24.89;33.70;99773.47;4485408;31;34089;-87
2022/06/18 02:35:35;;;;;;;;;;;;;;;24.86;33.50;99770.97;4506075;31;33689;-87
2022/06/18 02:38:03;;;;;;;;;;;;;;;24.74;33.72;99769.62;4502851;31;33871;-87
2022/06/18 02:40:32;;;;;;;;;;;;;;;24.87;33.77;99772.69;4495129;31;34338;-87
2022/06/18 02:43:00;;;;;;;;;;;;;;;24.76;33.89;99776.56;4470809;31;34707;-87
2022/06/18 02:45:27;;;;;;;;;;;;;;;24.86;33.77;99773.63;4502141;31;33879;-88
2022/06/18 02:47:56;;;;;;;;;;;;;;;24.69;33.78;99777.72;4486924;31;34069;-86
2022/06/18 02:50:23;;;;;;;;;;;;;;;24.70;33.58;99774.16;4512940;31;34370;-86
2022/06/18 02:52:52;;;;;;;;;;;;;;;24.60;33.84;99777.19;4511654;31;33153;-87
2022/06/18 02:55:22;;;;;;;;;;;;;;;24.68;33.84;99776.00;4512373;31;34233;-86
2022/06/18 02:57:50;;;;;;;;;;;;;;;24.62;33.86;99776.19;4508084;31;33965;-87
2022/06/18 03:00:17;;;;;;;;;;;;;;;24.50;34.14;99771.31;4504875;31;34793;-87
2022/06/18 03:02:45;;;;;;;;;;;;;;;24.61;33.98;99787.72;4485097;31;32532;-88
2022/06/18 03:05:23;;;;;;;;;;;;;;;24.66;34.00;99775.19;4483875;32;34452;-86
2022/06/18 03:07:51;;;;;;;;;;;;;;;24.85;33.60;99782.47;4497650;31;34103;-87
2022/06/18 03:13:36;;;;;;;;;;;;;;;24.89;33.88;99782.31;4514588;31;33466;-87
2022/06/18 03:16:05;;;;;;;;;;;;;;;24.91;33.81;99779.59;4516052;31;33742;-88
2022/06/18 03:18:34;;;;;;;;;;;;;;;24.87;33.78;99781.50;4509701;31;34802;-87
2022/06/18 03:21:16;;;;;;;;;;;;;;;24.97;33.87;99776.75;4498822;31;33299;-87
2022/06/18 03:23:44;;;;;;;;;;;;;;;25.05;33.55;99779.97;4503307;31;33289;-87
2022/06/18 03:26:12;;;;;;;;;;;;;;;25.19;33.32;99775.06;4508261;31;34256;-87
2022/06/18 03:28:40;;;;;;;;;;;;;;;25.11;33.64;99785.06;4514464;31;33975;-87
2022/06/18 03:31:08;;;;;;;;;;;;;;;24.93;33.90;99780.44;4506672;31;34344;-87
2022/06/18 03:33:36;;;;;;;;;;;;;;;24.93;33.77;99791.03;4501231;31;34093;-87
2022/06/18 03:36:04;;;;;;;;;;;;;;;24.79;34.15;99790.66;4484465;31;33882;-87
2022/06/18 03:38:32;;;;;;;;;;;;;;;24.61;34.21;99785.06;4483608;31;34581;-87
2022/06/18 03:40:59;;;;;;;;;;;;;;;24.69;34.57;99785.66;4494858;31;34977;-88
2022/06/18 03:43:27;;;;;;;;;;;;;;;24.71;34.47;99786.50;4489968;31;33548;-87
2022/06/18 03:45:59;;;;;;;;;;;;;;;24.75;34.67;99788.13;4514530;31;34211;-88
2022/06/18 03:48:38;;;;;;;;;;;;;;;24.86;34.31;99784.22;4484075;31;34985;-87
2022/06/18 03:51:06;;;;;;;;;;;;;;;24.90;34.65;99788.50;4496286;31;34967;-87
2022/06/18 03:53:36;;;;;;;;;;;;;;;24.78;33.66;99787.16;4508094;31;33038;-87
2022/06/18 03:56:03;;;;;;;;;;;;;;;25.54;32.98;99779.94;4499710;31;34084;-88
2022/06/18 03:58:31;;;;;;;;;;;;;;;25.90;32.07;99777.63;4498881;31;34018;-88
2022/06/18 04:00:58;;;;;;;;;;;;;;;26.37;31.88;99774.81;4499443;31;35189;-87
2022/06/18 04:03:26;;;;;;;;;;;;;;;26.92;30.64;99783.09;4498296;31;33609;-86
2022/06/18 04:05:53;;;;;;;;;;;;;;;26.99;30.63;99789.84;4494685;31;33971;-87
2022/06/18 04:08:21;;;;;;;;;;;;;;;27.22;31.00;99780.00;4506987;31;34361;-85
2022/06/18 04:10:48;;;;;;;;;;;;;;;27.68;30.83;99780.50;4503154;31;34707;-87
2022/06/18 04:13:15;;;;;;;;;;;;;;;28.08;30.33;99791.00;4501458;31;34076;-87
2022/06/18 04:15:43;;;;;;;;;;;;;;;27.97;29.86;99785.31;4500505;31;35079;-86
2022/06/18 04:18:12;;;;;;;;;;;;;;;27.77;30.48;99783.62;4509121;31;35249;-86
2022/06/18 04:20:40;;;;;;;;;;;;;;;27.39;30.16;99788.94;4499521;31;33825;-87
2022/06/18 04:23:08;;;;;;;;;;;;;;;27.34;29.79;99796.25;4515610;31;32963;-86
2022/06/18 04:25:36;;;;;;;;;;;;;;;27.47;29.52;99791.25;4513964;31;33632;-87
2022/06/18 04:28:03;;;;;;;;;;;;;;;27.98;29.68;99797.72;4505138;31;35233;-86
2022/06/18 04:30:31;;;;;;;;;;;;;;;27.53;30.33;99785.63;4515588;31;33816;-87
2022/06/18 04:32:59;;;;;;;;;;;;;;;26.99;30.96;99797.84;4487286;31;33199;-86
2022/06/18 04:35:27;;;;;;;;;;;;;;;28.10;29.67;99789.09;4483371;31;34231;-86
2022/06/18 04:37:55;;;;;;;;;;;;;;;28.70;29.26;99791.44;4498990;31;35073;-87
2022/06/18 04:40:31;;;;;;;;;;;;;;;28.11;29.47;99798.84;4496662;31;35149;-86
2022/06/18 04:43:19;;;;;;;;;;;;;;;28.93;29.24;99795.56;4488828;31;33095;-86
2022/06/18 04:45:47;;;;;;;;;;;;;;;29.56;28.39;99795.75;4508739;31;33922;-87
2022/06/18 04:48:15;;;;;;;;;;;;;;;29.77;29.51;99795.50;4504648;31;34054;-87
2022/06/18 04:50:42;;;;;;;;;;;;;;;30.24;29.30;99808.00;4508188;31;35118;-87
2022/06/18 04:53:11;;;;;;;;;;;;;;;30.52;29.28;99809.91;4498588;31;33876;-87
2022/06/18 04:55:39;;;;;;;;;;;;;;;30.81;28.96;99821.59;4506105;31;34124;-85
2022/06/18 04:58:06;;;;;;;;;;;;;;;31.15;28.76;99820.38;4479535;31;35247;-84
2022/06/18 05:00:34;;;;;;;;;;;;;;;30.61;28.82;99819.19;4509231;31;37098;-83
2022/06/18 05:03:03;;;;;;;;;;;;;;;30.55;29.25;99820.44;4512633;31;33472;-82
2022/06/18 05:05:30;;;;;;;;;;;;;;;30.46;29.63;99816.50;4489762;31;34873;-82
2022/06/18 05:07:58;;;;;;;;;;;;;;;30.39;30.31;99823.16;4499024;31;34330;-82
2022/06/18 05:10:26;;;;;;;;;;;;;;;29.87;29.96;99814.56;4499399;31;34084;-81
2022/06/18 05:12:53;;;;;;;;;;;;;;;28.65;29.16;99820.19;4493956;31;33957;-85
2022/06/18 05:15:21;;;;;;;;;;;;;;;29.61;31.38;99822.22;4502222;31;35045;-82
2022/06/18 05:17:52;;;;;;;;;;;;;;;29.86;31.28;99827.06;4492489;31;35178;-82
2022/06/18 05:20:21;;;;;;;;;;;;;;;30.26;30.50;99825.66;4491957;31;34373;-83
2022/06/18 05:22:49;;;;;;;;;;;;;;;30.29;30.99;99824.63;4499286;31;33537;-83
2022/06/18 05:25:17;;;;;;;;;;;;;;;31.02;29.38;99824.75;4497050;31;34148;-83
2022/06/18 05:27:46;;;;;;;;;;;;;;;30.90;28.95;99831.72;4492042;31;35011;-83
2022/06/18 05:30:17;;;;;;;;;;;;;;;30.06;29.33;99828.59;4496776;31;33922;-83
2022/06/18 05:32:45;;;;;;;;;;;;;;;30.10;28.05;99834.66;4487913;31;34238;-83
2022/06/18 05:35:13;;;;;;;;;;;;;;;30.82;26.37;99828.66;4501612;31;34632;-83
2022/06/18 05:37:41;;;;;;;;;;;;;;;30.90;26.97;99834.41;4492210;31;35037;-84
2022/06/18 05:40:09;;;;;;;;;;;;;;;31.28;25.02;99833.87;4489060;31;33990;-83
2022/06/18 05:42:36;;;;;;;;;;;;;;;31.31;27.12;99841.75;4503796;31;34336;-84
2022/06/18 05:45:04;;;;;;;;;;;;;;;31.64;26.79;99837.91;4505723;31;34099;-82
2022/06/18 05:47:32;;;;;;;;;;;;;;;31.21;27.92;99852.12;4478287;31;33497;-81
2022/06/18 05:50:00;;;;;;;;;;;;;;;32.23;26.75;99841.22;4496858;31;33680;-82
2022/06/18 05:52:29;;;;;;;;;;;;;;;31.81;24.95;99843.03;4512737;31;33232;-81
2022/06/18 05:54:59;;;;;;;;;;;;;;;32.35;26.02;99840.44;4510732;31;34181;-82
2022/06/18 05:57:26;;;;;;;;;;;;;;;32.50;27.57;99853.78;4506440;31;34147;-81
2022/06/18 05:59:55;;;;;;;;;;;;;;;32.38;28.09;99850.94;4513387;31;34809;-82
2022/06/18 06:02:22;;;;;;;;;;;;;;;30.72;25.75;99857.78;4514547;31;33441;-82
2022/06/18 06:04:50;;;;;;;;;;;;;;;31.30;22.74;99850.75;4504341;31;35005;-84
2022/06/18 06:07:20;;;;;;;;;;;;;;;30.88;24.70;99851.53;4505830;31;34361;-85
2022/06/18 06:12:37;;;;;;;;;;;;;;;31.48;22.95;99848.72;4501886;31;33224;-85
2022/06/18 06:15:05;;;;;;;;;;;;;;;30.82;25.37;99849.22;4507552;31;34262;-86
2022/06/18 06:17:33;;;;;;;;;;;;;;;30.96;25.48;99852.78;4505570;31;35143;-85
2022/06/18 06:20:06;;;;;;;;;;;;;;;30.19;25.19;99845.72;4500639;31;35097;-87
2022/06/18 06:22:35;;;;;;;;;;;;;;;31.22;23.96;99850.34;4486179;31;33451;-86
2022/06/18 06:25:03;;;;;;;;;;;;;;;30.03;25.25;99843.00;4497450;31;33985;-84
2022/06/18 06:27:30;;;;;;;;;;;;;;;31.01;25.38;99853.34;4504283;31;34362;-84
2022/06/18 06:29:57;;;;;;;;;;;;;;;31.40;24.78;99856.37;4510077;31;35226;-84
2022/06/18 06:32:24;;;;;;;;;;;;;;;31.52;25.47;99857.44;4509797;31;34453;-85
2022/06/18 06:34:52;;;;;;;;;;;;;;;30.79;24.94;99855.59;4508583;31;34067;-84
2022/06/18 06:37:19;;;;;;;;;;;;;;;31.37;26.41;99867.31;4507098;31;35268;-87
2022/06/18 06:39:47;;;;;;;;;;;;;;;30.26;26.80;99856.91;4509405;31;34078;-83
2022/06/18 06:42:15;;;;;;;;;;;;;;;30.86;25.42;99856.09;4504700;31;32900;-83
2022/06/18 06:44:42;;;;;;;;;;;;;;;30.99;25.81;99854.44;4499508;31;33916;-85
2022/06/18 06:47:10;;;;;;;;;;;;;;;31.53;24.43;99854.66;4508424;31;34998;-86
2022/06/18 06:49:37;;;;;;;;;;;;;;;31.54;25.28;99858.22;4500780;31;34374;-83
2022/06/18 06:52:04;;;;;;;;;;;;;;;30.73;25.15;99866.66;4492260;31;33431;-87
2022/06/18 06:54:33;;;;;;;;;;;;;;;30.98;25.10;99864.25;4500233;31;34310;-86
2022/06/18 06:59:47;;;;;;;;;;;;;;;31.69;23.94;99851.88;4514661;31;33994;-86
2022/06/18 07:02:18;;;;;;;;;;;;;;;30.53;25.11;99858.00;4514450;31;34132;-86
2022/06/18 07:04:45;;;;;;;;;;;;;;;30.12;25.51;99843.44;4512850;31;34938;-85
2022/06/18 07:07:13;;;;;;;;;;;;;;;29.16;26.67;99857.59;4515996;31;34655;-87
2022/06/18 07:09:42;;;;;;;;;;;;;;;29.94;25.70;99850.69;4515666;31;35082;-86
2022/06/18 07:12:09;;;;;;;;;;;;;;;30.14;25.92;99846.88;4516359;31;33163;-86
2022/06/18 07:14:36;;;;;;;;;;;;;;;29.83;25.81;99845.09;4516292;31;34335;-86
2022/06/18 07:17:04;;;;;;;;;;;;;;;30.69;25.21;99857.09;4516268;31;33991;-86
2022/06/18 07:19:31;;;;;;;;;;;;;;;29.95;25.79;99847.06;4516331;31;34947;-86
2022/06/18 07:21:58;;;;;;;;;;;;;;;29.65;26.44;99844.28;4516554;31;33725;-86
2022/06/18 07:24:26;;;;;;;;;;;;;;;29.65;26.07;99846.97;4515798;31;35020;-86
2022/06/18 07:26:53;;;;;;;;;;;;;;;29.94;27.54;99850.69;4516225;31;35323;-86
2022/06/18 07:29:21;;;;;;;;;;;;;;;29.65;26.38;99855.00;4514840;31;34243;-86
2022/06/18 07:31:49;;;;;;;;;;;;;;;29.20;27.83;99853.81;4515853;31;34055;-87
2022/06/18 07:34:16;;;;;;;;;;;;;;;28.86;28.79;99851.06;4515824;31;34352;-86
2022/06/18 07:36:44;;;;;;;;;;;;;;;28.56;28.18;99853.53;4515614;31;34079;-86
2022/06/18 07:39:11;;;;;;;;;;;;;;;29.38;27.86;99851.97;4514996;31;34371;-86
2022/06/18 07:41:42;;;;;;;;;;;;;;;27.92;29.37;99856.66;4515888;31;34034;-85
2022/06/18 07:44:09;;;;;;;;;;;;;;;28.46;28.72;99856.72;4514557;31;33296;-85
2022/06/18 07:46:37;;;;;;;;;;;;;;;28.45;28.92;99847.87;4515558;31;34120;-85
2022/06/18 07:49:05;;;;;;;;;;;;;;;28.61;29.49;99855.97;4515614;31;35013;-84
2022/06/18 07:51:33;;;;;;;;;;;;;;;29.23;28.11;99851.84;4515903;31;33346;-84
2022/06/18 07:54:01;;;;;;;;;;;;;;;28.24;29.69;99848.91;4515515;31;34032;-85
2022/06/18 07:56:28;;;;;;;;;;;;;;;29.19;28.04;99852.09;4515709;31;34271;-85
2022/06/18 07:58:55;;;;;;;;;;;;;;;28.64;29.11;99850.47;4515673;31;33729;-85
2022/06/18 08:01:23;;;;;;;;;;;;;;;27.78;29.47;99849.31;4515497;31;33413;-85
2022/06/18 08:03:50;;;;;;;;;;;;;;;28.09;29.45;99854.03;4515704;31;33800;-86
2022/06/18 08:06:18;;;;;;;;;;;;;;;28.25;29.00;99846.13;4515633;31;34362;-86
2022/06/18 08:08:45;;;;;;;;;;;;;;;28.11;29.46;99846.84;4515126;31;34084;-84
2022/06/18 08:11:15;;;;;;;;;;;;;;;29.04;28.17;99840.41;4515624;31;33368;-86
2022/06/18 08:13:42;;;;;;;;;;;;;;;29.04;28.86;99843.94;4515621;31;34252;-87
2022/06/18 08:16:10;;;;;;;;;;;;;;;29.76;27.76;99837.41;4515713;31;33545;-86
2022/06/18 08:18:37;;;;;;;;;;;;;;;29.15;28.47;99835.38;4515523;31;33688;-85
2022/06/18 08:21:10;;;;;;;;;;;;;;;30.25;27.53;99833.78;4515302;31;33103;-85
2022/06/18 08:23:37;;;;;;;;;;;;;;;29.50;28.17;99837.94;4514108;31;34160;-86
2022/06/18 08:26:05;;;;;;;;;;;;;;;29.83;28.02;99837.94;4514208;31;34207;-86
2022/06/18 08:28:32;;;;;;;;;;;;;;;30.23;25.59;99825.87;4514113;31;34580;-85
2022/06/18 08:31:00;;;;;;;;;;;;;;;28.96;26.00;99823.91;4514186;31;34353;-86
2022/06/18 08:33:29;;;;;;;;;;;;;;;28.32;27.78;99831.56;4514130;31;35102;-85
2022/06/18 08:35:57;;;;;;;;;;;;;;;29.30;26.30;99839.03;4515254;31;34451;-86
2022/06/18 08:38:24;;;;;;;;;;;;;;;29.51;26.42;99827.19;4514227;31;35537;-86
2022/06/18 08:41:10;;;;;;;;;;;;;;;30.00;26.60;99832.50;4514356;31;33159;-85
2022/06/18 08:43:47;;;;;;;;;;;;;;;29.58;27.37;99823.25;4515486;31;34109;-85
2022/06/18 08:46:30;;;;;;;;;;;;;;;29.93;26.97;99817.75;4515370;31;34353;-85
2022/06/18 08:49:12;;;;;;;;;;;;;;;28.38;28.01;99817.13;4514984;31;34252;-84
2022/06/18 08:51:47;;;;;;;;;;;;;;;29.06;26.01;99815.38;4515312;31;33415;-83
2022/06/18 08:54:20;;;;;;;;;;;;;;;29.01;25.39;99819.22;4514104;31;34202;-84
2022/06/18 08:56:53;;;;;;;;;;;;;;;29.66;26.90;99811.28;4501135;31;32982;-85
2022/06/18 08:59:27;;;;;;;;;;;;;;;29.78;25.45;99805.25;4513874;31;34349;-86
2022/06/18 09:02:01;;;;;;;;;;;;;;;29.73;25.56;99804.63;4513859;31;34444;-85
2022/06/18 09:04:45;;;;;;;;;;;;;;;30.06;24.32;99812.56;4514188;31;33712;-86
2022/06/18 09:07:22;;;;;;;;;;;;;;;30.84;24.52;99810.69;4515345;31;34521;-83
2022/06/18 09:10:05;;;;;;;;;;;;;;;30.26;26.14;99814.12;4513957;31;33488;-86
2022/06/18 09:12:33;;;;;;;;;;;;;;;29.71;26.24;99801.22;4515385;31;33999;-85
2022/06/18 09:15:08;;;;;;;;;;;;;;;30.05;26.15;99801.00;4514012;31;34674;-85
2022/06/18 09:17:40;;;;;;;;;;;;;;;29.94;26.31;99797.25;4515100;31;34091;-86
2022/06/18 09:20:10;;;;;;;;;;;;;;;30.01;27.14;99794.13;4513611;31;34991;-86
2022/06/18 09:22:48;;;;;;;;;;;;;;;30.16;26.78;99800.44;4513852;31;33681;-86
2022/06/18 09:25:16;;;;;;;;;;;;;;;29.84;26.61;99786.19;4515105;31;34588;-85
2022/06/18 09:27:46;;;;;;;;;;;;;;;30.06;26.77;99791.19;4515117;31;35049;-86
2022/06/18 09:30:32;;;;;;;;;;;;;;;30.21;27.84;99797.47;4513812;31;34733;-85
2022/06/18 09:33:22;;;;;;;;;;;;;;;30.44;25.50;99794.31;4514970;31;32977;-86
2022/06/18 09:36:01;;;;;;;;;;;;;;;29.99;25.17;99801.34;4506626;31;34291;-85
2022/06/18 09:38:31;;;;;;;;;;;;;;;30.49;22.82;99794.03;4515222;31;34804;-85
2022/06/18 09:41:08;;;;;;;;;;;;;;;29.66;24.75;99787.22;4513675;31;34089;-84
2022/06/18 09:43:42;;;;;;;;;;;;;;;29.41;25.42;99782.38;4513722;31;33052;-86
2022/06/18 09:46:12;;;;;;;;;;;;;;;29.16;27.37;99786.38;4514979;31;35159;-88
2022/06/18 09:48:40;;;;;;;;;;;;;;;28.65;27.48;99789.97;4513309;31;34480;-84
2022/06/18 09:51:35;;;;;;;;;;;;;;;29.95;25.37;99789.13;4514711;31;35159;-86
2022/06/18 09:54:04;;;;;;;;;;;;;;;30.45;25.08;99779.97;4502604;31;33278;-87
2022/06/18 09:56:33;;;;;;;;;;;;;;;29.73;26.19;99783.25;4513487;31;34974;-85
2022/06/18 09:59:01;;;;;;;;;;;;;;;30.77;25.26;99774.53;4514563;31;34296;-87
2022/06/18 10:01:35;;;;;;;;;;;;;;;30.20;26.23;99780.56;4512387;31;35037;-86
2022/06/18 10:06:57;;;;;;;;;;;;;;;30.45;25.35;99776.44;4515064;31;34071;-86
2022/06/18 10:09:59;;;;;;;;;;;;;;;29.80;25.23;99763.25;4513663;31;34203;-86
2022/06/18 10:12:29;;;;;;;;;;;;;;;29.25;27.40;99766.34;4514841;31;34282;-83
2022/06/18 10:14:58;;;;;;;;;;;;;;;29.74;25.83;99755.63;4513237;31;33120;-85
2022/06/18 10:17:31;;;;;;;;;;;;;;;30.20;26.20;99756.50;4514784;31;34988;-84
2022/06/18 10:19:59;;;;;;;;;;;;;;;28.91;26.55;99760.09;4514599;31;35186;-86
2022/06/18 10:22:26;;;;;;;;;;;;;;;29.65;26.49;99748.97;4514467;31;34770;-85
2022/06/18 10:24:53;;;;;;;;;;;;;;;29.96;24.71;99750.72;4514481;31;33280;-86
2022/06/18 10:27:37;;;;;;;;;;;;;;;30.26;24.80;99747.25;4514343;31;35185;-85
2022/06/18 10:30:05;;;;;;;;;;;;;;;30.87;25.14;99746.22;4513335;31;33950;-85
2022/06/18 10:32:39;;;;;;;;;;;;;;;29.93;24.22;99742.03;4514138;31;35023;-86
2022/06/18 10:35:25;;;;;;;;;;;;;;;30.59;24.47;99740.84;4514956;31;34145;-87
2022/06/18 10:37:57;;;;;;;;;;;;;;;30.86;24.40;99731.12;4514244;31;35145;-86
2022/06/18 10:41:00;;;;;;;;;;;;;;;30.35;24.44;99727.13;4512977;31;34867;-87
2022/06/18 10:43:34;;;;;;;;;;;;;;;30.71;23.96;99740.06;4513968;31;35008;-87
2022/06/18 10:46:06;;;;;;;;;;;;;;;30.74;25.08;99737.25;4512939;31;34445;-85
2022/06/18 10:48:33;;;;;;;;;;;;;;;30.69;24.53;99742.00;4512549;31;34062;-86
2022/06/18 10:51:01;;;;;;;;;;;;;;;30.70;25.22;99738.38;4512714;31;35090;-85
2022/06/18 10:53:35;;;;;;;;;;;;;;;31.08;25.22;99722.62;4514464;31;33939;-87
2022/06/18 10:56:04;;;;;;;;;;;;;;;30.84;24.32;99725.03;4513912;31;33457;-85
2022/06/18 10:58:31;;;;;;;;;;;;;;;29.97;24.68;99728.41;4514003;31;33904;-88
2022/06/18 11:01:03;;;;;;;;;;;;;;;30.54;25.11;99719.72;4512605;31;34120;-86
2022/06/18 11:03:31;;;;;;;;;;;;;;;30.69;24.15;99723.28;4512848;31;33225;-87
2022/06/18 11:05:58;;;;;;;;;;;;;;;30.98;25.71;99716.12;4514312;31;34030;-86
2022/06/18 11:08:27;;;;;;;;;;;;;;;31.29;26.00;99725.75;4513927;31;34304;-86
2022/06/18 11:10:54;;;;;;;;;;;;;;;31.02;24.09;99720.31;4513727;31;34402;-86
2022/06/18 11:13:25;;;;;;;;;;;;;;;31.62;24.29;99713.84;4515714;31;34139;-85
2022/06/18 11:16:02;;;;;;;;;;;;;;;31.41;22.99;99698.22;4515796;31;34044;-87
2022/06/18 11:18:29;;;;;;;;;;;;;;;31.68;24.04;99713.44;4514784;31;34294;-86
2022/06/18 11:21:12;;;;;;;;;;;;;;;31.63;24.36;99715.53;4516104;31;34347;-86
2022/06/18 11:23:39;;;;;;;;;;;;;;;31.00;25.21;99703.50;4514847;31;34238;-86
2022/06/18 11:26:27;;;;;;;;;;;;;;;31.73;23.73;99697.91;4514799;31;32744;-86
2022/06/18 11:28:56;;;;;;;;;;;;;;;31.25;24.26;99684.91;4515929;31;34180;-86
2022/06/18 11:31:46;;;;;;;;;;;;;;;31.98;24.62;99689.97;4514442;31;35335;-87
2022/06/18 11:34:33;;;;;;;;;;;;;;;32.64;21.80;99676.53;4508253;31;34334;-87
2022/06/18 11:37:00;;;;;;;;;;;;;;;32.09;24.22;99673.16;4514480;31;34009;-86
2022/06/18 11:39:33;;;;;;;;;;;;;;;30.74;25.72;99671.19;4514522;31;34324;-86
2022/06/18 11:42:08;;;;;;;;;;;;;;;32.02;24.57;99660.28;4514662;31;34621;-86
2022/06/18 11:44:38;;;;;;;;;;;;;;;31.90;23.79;99668.19;4514487;31;35034;-84
2022/06/18 11:47:08;;;;;;;;;;;;;;;30.66;23.97;99667.25;4514617;31;33500;-86
2022/06/18 11:49:36;;;;;;;;;;;;;;;30.41;24.71;99652.69;4515576;31;34411;-86
2022/06/18 11:52:17;;;;;;;;;;;;;;;31.27;23.45;99653.50;4515949;31;34376;-85
2022/06/18 11:55:04;;;;;;;;;;;;;;;30.98;24.32;99650.03;4514295;31;34226;-86
2022/06/18 11:57:44;;;;;;;;;;;;;;;31.17;24.50;99647.03;4515775;31;34279;-85
2022/06/18 12:00:34;;;;;;;;;;;;;;;31.24;23.52;99645.69;4515212;31;34025;-85
2022/06/18 12:03:01;;;;;;;;;;;;;;;31.49;22.66;99642.28;4507889;31;35201;-86
2022/06/18 12:05:33;;;;;;;;;;;;;;;31.73;23.65;99647.81;4515626;31;34017;-85
2022/06/18 12:08:01;;;;;;;;;;;;;;;31.79;22.54;99648.41;4514320;31;34240;-85
2022/06/18 12:10:32;;;;;;;;;;;;;;;31.36;22.34;99636.00;4515746;31;34937;-84
2022/06/18 12:13:11;;;;;;;;;;;;;;;30.54;24.21;99634.94;4515516;31;34113;-86
2022/06/18 12:15:59;;;;;;;;;;;;;;;31.07;27.02;99635.22;4515480;31;34005;-85
2022/06/18 12:18:30;;;;;;;;;;;;;;;31.78;22.68;99633.25;4514720;31;34037;-86
2022/06/18 12:21:03;;;;;;;;;;;;;;;31.64;23.17;99635.06;4514314;31;34911;-85
2022/06/18 12:23:35;;;;;;;;;;;;;;;32.34;22.99;99624.00;4513494;31;34819;-86
2022/06/18 12:26:15;;;;;;;;;;;;;;;32.18;22.12;99615.31;4514273;31;34469;-87
2022/06/18 12:29:01;;;;;;;;;;;;;;;31.82;24.42;99621.34;4513949;31;33531;-87
2022/06/18 12:31:44;;;;;;;;;;;;;;;31.65;23.60;99615.31;4515333;31;34054;-85
2022/06/18 12:34:31;;;;;;;;;;;;;;;31.93;22.18;99625.03;4514344;31;33993;-87
2022/06/18 12:37:05;;;;;;;;;;;;;;;32.17;22.46;99610.94;4514207;31;34371;-87
2022/06/18 12:39:34;;;;;;;;;;;;;;;32.09;22.45;99624.88;4515638;31;33012;-86
2022/06/18 12:42:02;;;;;;;;;;;;;;;31.74;23.88;99619.19;4514226;31;33886;-86
2022/06/18 12:44:46;;;;;;;;;;;;;;;32.21;22.49;99617.81;4514907;31;34513;-87
2022/06/18 12:47:32;;;;;;;;;;;;;;;31.20;23.70;99614.69;4515622;31;34938;-86
2022/06/18 12:50:26;;;;;;;;;;;;;;;32.54;21.19;99608.34;4515348;31;34106;-85
2022/06/18 12:53:03;;;;;;;;;;;;;;;32.66;22.17;99607.50;4512580;31;34178;-88
2022/06/18 12:55:36;;;;;;;;;;;;;;;33.26;22.22;99609.38;4515460;31;34884;-86
2022/06/18 12:58:09;;;;;;;;;;;;;;;31.50;21.73;99606.47;4515163;31;34298;-86
2022/06/18 13:00:44;;;;;;;;;;;;;;;32.17;23.12;99593.00;4514109;31;33785;-86
2022/06/18 13:03:14;;;;;;;;;;;;;;;33.01;21.54;99594.22;4513953;31;33812;-86
2022/06/18 13:05:42;;;;;;;;;;;;;;;32.33;21.70;99584.75;4515343;31;34642;-87
2022/06/18 13:08:29;;;;;;;;;;;;;;;31.68;21.15;99588.31;4515289;31;35160;-85
2022/06/18 13:11:17;;;;;;;;;;;;;;;30.28;22.93;99591.06;4483016;31;34266;-86
2022/06/18 13:13:58;;;;;;;;;;;;;;;31.21;21.82;99572.69;4515077;31;34669;-87
2022/06/18 13:16:51;;;;;;;;;;;;;;;31.96;21.52;99576.56;4513951;31;35161;-87
2022/06/18 13:19:28;;;;;;;;;;;;;;;32.45;21.43;99575.84;4515194;31;34325;-87
2022/06/18 13:21:55;;;;;;;;;;;;;;;32.92;21.09;99566.19;4513901;31;33658;-87